• Join FlightAware (Why Join?)
  • Login
  • US Flag 
04:45PM EDT


 

Airport Tracker/Info


-or-


 

Live Flight TrackerFlight Track Log ✈ N600TR ✈ 14-Aug-2013 ✈ KATL - KSDF

Flight Track Log - Related Links

Times and Time Zones

All times are in EDT time to prevent confusion due to time zone crossing. See the N600TR flight status page for this flight to view local times or setup timezone preferences in your user account.

Time Position Orientation Groundspeed Altitude Reporting Facility
EDT Latitude Longitude Course Direction KTS MPH feet Rate Location/Type
04:24PM 33.6500 -84.4500 348° North 152 175 2,100  Level Atlanta TRACON
04:25PM 33.6667 -84.5167 287° West 258 297 3,200 1,980 Climbing Atlanta TRACON
04:26PM 33.7000 -84.6000 296° West 284 327 6,100 2,580 Climbing Atlanta TRACON
04:27PM 34.0549 -84.5266 349° North  Level FlightAware Approximate
04:27PM 33.7833 -84.6000 360° North 288 331 8,400  Level Atlanta TRACON
04:28PM 34.1538 -84.5535 347° North  Level FlightAware Approximate
04:28PM 33.8667 -84.6167 351° North 299 344 10,100  Level Atlanta TRACON
04:29PM 34.2578 -84.5816 348° North  Level FlightAware Approximate
04:29PM 33.9850 -84.6275 356° North 336 387 12,100  Level Atlanta Center
04:30PM 34.3620 -84.6085 348° North  Level FlightAware Approximate
04:30PM 34.0831 -84.6333 357° North 353 406 13,700  Level Atlanta Center
04:31PM 34.1853 -84.6439 355° North 358 412 16,100 1,920 Climbing Atlanta Center
04:32PM 34.2728 -84.6497 357° North 358 412 17,600 1,560 Climbing Atlanta Center
04:33PM 34.3750 -84.6553 357° North 358 412 19,300 1,560 Climbing Atlanta Center
04:34PM 34.4814 -84.6739 352° North 373 429 20,800 1,380 Climbing Atlanta Center
04:35PM 34.5856 -84.7075 345° North 373 429 22,100 1,260 Climbing Atlanta Center
04:36PM 34.6897 -84.7436 344° North 379 436 23,400 1,200 Climbing Atlanta Center
04:37PM 34.8106 -84.7700 350° North 385 443 24,600 900 Climbing Atlanta Center
04:38PM 34.9253 -84.7911 351° North 396 456 25,200 780 Climbing Atlanta Center
04:39PM 35.0419 -84.8100 352° North 410 472 26,200 840 Climbing Atlanta Center
04:40PM 35.1564 -84.8414 347° North 415 478 26,900 780 Climbing Atlanta Center
04:41PM 35.2689 -84.8808 344° North 415 478 27,800 540 Climbing Atlanta Center
04:42PM 35.3833 -84.9150 346° North 415 478 28,000 60 Climbing Atlanta Center
04:43PM 35.5086 -84.9292 355° North 425 489 28,000  Level Atlanta Center
04:44PM 35.6336 -84.9408 356° North 440 506 28,000  Level Atlanta Center
04:45PM 35.7608 -84.9625 352° North 450 518 28,000  Level Atlanta Center
04:46PM 35.8836 -84.9844 352° North 467 537 28,000  Level Indianapolis Center
04:47PM 36.0178 -85.0319 344° North 457 526 28,000  Level Indianapolis Center
04:48PM 36.1403 -85.0697 346° North 454 522 28,000  Level Indianapolis Center
04:50PM 36.2642 -85.0883 353° North 449 517 28,000 -240 Level Indianapolis Center
04:51PM 36.3886 -85.0989 356° North 447 514 27,600 -1,320 Descending Indianapolis Center
04:52PM 36.5122 -85.1328 348° North 453 521 25,300 -2,040 Descending Indianapolis Center
04:53PM 36.6519 -85.1878 342° North 442 509 23,500 -2,280 Descending Indianapolis Center
04:54PM 36.7683 -85.2147 349° North 433 498 20,700 -1,680 Descending Indianapolis Center
04:55PM 36.8839 -85.1525 23° Northeast 447 514 20,000 -360 Descending Indianapolis Center
04:56PM 36.9950 -85.0853 26° Northeast 444 511 20,000 -660 Level Indianapolis Center
04:57PM 37.1167 -85.0275 21° North 435 501 18,700 -1,980 Descending Indianapolis Center
04:58PM 37.2300 -84.9928 14° North 418 481 16,000 -2,520 Descending Indianapolis Center
04:59PM 37.3378 -84.9622 13° North 397 457 13,500 -1,860 Descending Indianapolis Center
05:00PM 37.4431 -84.9392 10° North 384 442 12,200 -1,200 Descending Indianapolis Center
05:01PM 37.5628 -84.9258 North 367 422 11,100 -780 Descending Indianapolis Center
05:02PM 37.6517 -84.9811 334° Northwest 365 420 10,600 -540 Descending Indianapolis Center
05:03PM 37.7242 -85.0678 317° Northwest 359 413 10,000 -300 Descending Indianapolis Center
05:04PM 37.7822 -85.1431 314° West 298 343 10,000 -1,020 Level Indianapolis Center
05:05PM 37.8167 -85.2306 297° West 286 329 7,900 -1,980 Descending Indianapolis Center
05:06PM 37.8503 -85.3278 294° West 282 325 6,000 -1,620 Descending Indianapolis Center
05:07PM 37.8836 -85.4144 296° West 276 318 4,600 -960 Descending Indianapolis Center
05:08PM 37.9161 -85.5014 295° West 273 314 4,100 -480 Descending Indianapolis Center
05:11PM 38.0139 -85.6639 307° West 563 648 3,100 -300 Descending Indianapolis Center
05:12PM 38.0594 -85.6878 338° Northwest 237 273 3,100  Level Indianapolis Center